Time;durP1;ratioP1;P1;durP2;ratioP2;P2;SDS_P1;SDS_P2;PMS_P1;PMS_P2;Temp;Humidity;BMP_temperature;BMP_pressure;BME280_temperature;BME280_humidity;BME280_pressure;Samples;Min_cycle;Max_cycle;Signal;HPM_P1;HPM_P2
2022/05/26 00:04:07;;;;;;;;;;;16.00;1.00;;;;;;10454340;27;84774;-51
2022/05/26 00:09:08;;;;;;;;;;;16.00;1.00;;;;;;10473254;27;84200;-51
2022/05/26 00:14:10;;;;;;;;;;;16.00;1.00;;;;;;10457012;28;84157;-47
2022/05/26 00:19:11;;;;;;;;;;;15.90;1.00;;;;;;10456767;27;84213;-47
2022/05/26 00:24:12;;;;;;;;;;;16.00;1.00;;;;;;10456704;27;85015;-48
2022/05/26 00:29:13;;;;;;;;;;;15.90;1.00;;;;;;10455960;28;84480;-48
2022/05/26 00:34:13;;;;;;;;;;;15.90;1.00;;;;;;10456083;28;84117;-50
2022/05/26 00:39:15;;;;;;;;;;;15.90;1.00;;;;;;10456329;28;84022;-50
2022/05/26 00:44:16;;;;;;;;;;;15.90;1.00;;;;;;10471285;27;87098;-49
2022/05/26 00:49:23;;;;;;;;;;;15.90;1.00;;;;;;10456112;28;84957;-52
2022/05/26 00:54:25;;;;;;;;;;;15.90;1.00;;;;;;10455486;28;84293;-48
2022/05/26 00:59:25;;;;;;;;;;;15.90;1.00;;;;;;10455781;28;84154;-52
2022/05/26 01:04:29;;;;;;;;;;;15.80;1.00;;;;;;10455516;28;84172;-49
2022/05/26 01:09:30;;;;;;;;;;;15.90;1.00;;;;;;10455281;27;84156;-53
2022/05/26 01:14:31;;;;;;;;;;;15.90;1.00;;;;;;10454085;28;84763;-49
2022/05/26 01:19:32;;;;;;;;;;;15.80;1.00;;;;;;10454345;28;84825;-48
2022/05/26 01:24:39;;;;;;;;;;;15.80;1.00;;;;;;10470424;27;86116;-48
2022/05/26 01:29:39;;;;;;;;;;;15.80;1.00;;;;;;10454125;28;84150;-50
2022/05/26 01:34:51;;;;;;;;;;;15.80;1.00;;;;;;10454031;28;84968;-51
2022/05/26 01:40:21;;;;;;;;;;;15.70;1.00;;;;;;10454529;28;84764;-50
2022/05/26 01:45:27;;;;;;;;;;;15.80;1.00;;;;;;10452041;28;84793;-47
2022/05/26 01:50:33;;;;;;;;;;;15.90;1.00;;;;;;10454642;28;84812;-49
2022/05/26 01:55:40;;;;;;;;;;;15.80;1.00;;;;;;10453545;28;84647;-52
2022/05/26 02:00:41;;;;;;;;;;;15.80;1.00;;;;;;10454570;28;84168;-51
2022/05/26 02:05:52;;;;;;;;;;;15.70;1.00;;;;;;10453652;28;84119;-52
2022/05/26 02:10:56;;;;;;;;;;;15.80;1.00;;;;;;10453619;28;84390;-53
2022/05/26 02:16:02;;;;;;;;;;;15.70;1.00;;;;;;10428454;28;84249;-52
2022/05/26 02:21:09;;;;;;;;;;;15.70;1.00;;;;;;10454196;28;84223;-55
2022/05/26 02:26:09;;;;;;;;;;;15.70;1.00;;;;;;10451693;27;84897;-51
2022/05/26 02:31:10;;;;;;;;;;;15.70;1.00;;;;;;10453223;28;84050;-48
2022/05/26 02:36:11;;;;;;;;;;;15.70;1.00;;;;;;10452318;28;84120;-48
2022/05/26 02:41:11;;;;;;;;;;;15.60;1.00;;;;;;10451830;28;85031;-49
2022/05/26 02:46:24;;;;;;;;;;;15.60;1.00;;;;;;10449879;28;84269;-51
2022/05/26 02:51:27;;;;;;;;;;;15.60;1.00;;;;;;10451710;28;85346;-52
2022/05/26 02:57:01;;;;;;;;;;;15.50;1.00;;;;;;10452720;28;84270;-49
2022/05/26 03:02:09;;;;;;;;;;;15.50;1.00;;;;;;10449269;28;84869;-49
2022/05/26 03:07:12;;;;;;;;;;;15.50;1.00;;;;;;10452178;28;84236;-50
2022/05/26 03:12:21;;;;;;;;;;;15.50;1.00;;;;;;10451000;27;84833;-53
2022/05/26 03:17:22;;;;;;;;;;;15.40;1.00;;;;;;10452436;28;84346;-51
2022/05/26 03:22:22;;;;;;;;;;;15.30;1.00;;;;;;10451450;28;84267;-52
2022/05/26 03:27:23;;;;;;;;;;;15.30;14.60;;;;;;10467258;27;85965;-50
2022/05/26 03:32:24;;;;;;;;;;;15.30;46.30;;;;;;10448134;28;86891;-48
2022/05/26 03:42:44;;;;;;;;;;;15.10;99.90;;;;;;10451716;27;84027;-50
2022/05/26 03:47:45;;;;;;;;;;;15.10;99.90;;;;;;10450498;28;84900;-55
2022/05/26 03:52:45;;;;;;;;;;;15.20;99.90;;;;;;10450301;28;85883;-52
2022/05/26 03:57:46;;;;;;;;;;;15.20;99.90;;;;;;10450888;28;84169;-49
2022/05/26 04:02:47;;;;;;;;;;;15.20;99.90;;;;;;10450789;28;84854;-47
2022/05/26 04:07:48;;;;;;;;;;;15.20;99.90;;;;;;10449031;27;85544;-48
2022/05/26 04:12:48;;;;;;;;;;;15.10;99.90;;;;;;10449622;28;84778;-52
2022/05/26 04:17:49;;;;;;;;;;;15.20;99.90;;;;;;10466128;27;85947;-52
2022/05/26 04:22:50;;;;;;;;;;;15.20;99.90;;;;;;10450123;28;84815;-51
2022/05/26 04:27:53;;;;;;;;;;;15.20;99.90;;;;;;10449837;28;84798;-51
2022/05/26 04:32:53;;;;;;;;;;;15.20;99.90;;;;;;10450041;28;84109;-51
2022/05/26 04:37:54;;;;;;;;;;;15.40;99.90;;;;;;10449633;28;84524;-52
2022/05/26 04:42:55;;;;;;;;;;;15.30;99.90;;;;;;10449796;28;84670;-48
2022/05/26 04:47:55;;;;;;;;;;;15.40;99.90;;;;;;10453990;27;83992;-47
2022/05/26 04:52:56;;;;;;;;;;;15.40;99.90;;;;;;10456408;28;84042;-51
2022/05/26 04:57:56;;;;;;;;;;;15.50;99.90;;;;;;10457363;27;84961;-53
2022/05/26 05:02:57;;;;;;;;;;;15.60;99.90;;;;;;10453329;27;84978;-51
2022/05/26 05:07:57;;;;;;;;;;;15.60;99.90;;;;;;10454430;27;86536;-52
2022/05/26 05:12:59;;;;;;;;;;;15.60;99.90;;;;;;10458038;27;84908;-52
2022/05/26 05:18:10;;;;;;;;;;;15.70;99.90;;;;;;10450821;28;85144;-52
2022/05/26 05:23:14;;;;;;;;;;;15.70;99.90;;;;;;10451718;27;85146;-49
2022/05/26 05:28:31;;;;;;;;;;;15.80;99.90;;;;;;10451821;28;85612;-51
2022/05/26 05:33:33;;;;;;;;;;;15.90;88.10;;;;;;10452366;28;84965;-49
2022/05/26 05:38:35;;;;;;;;;;;16.00;60.30;;;;;;10451165;27;84893;-50
2022/05/26 05:43:36;;;;;;;;;;;16.10;28.70;;;;;;10451725;28;84998;-49
2022/05/26 05:48:36;;;;;;;;;;;16.20;1.00;;;;;;10450635;27;84949;-49
2022/05/26 05:53:37;;;;;;;;;;;16.50;1.00;;;;;;10449774;27;85209;-49
2022/05/26 05:58:37;;;;;;;;;;;16.80;1.00;;;;;;10451103;27;84923;-49
2022/05/26 06:03:38;;;;;;;;;;;16.80;1.00;;;;;;10449444;28;84243;-53
2022/05/26 06:08:39;;;;;;;;;;;16.90;1.00;;;;;;10448451;27;85234;-50
2022/05/26 06:13:39;;;;;;;;;;;16.90;1.00;;;;;;10451657;28;84846;-46
2022/05/26 06:18:40;;;;;;;;;;;16.80;1.00;;;;;;10449621;28;85434;-47
2022/05/26 06:23:40;;;;;;;;;;;16.80;1.00;;;;;;10452127;28;84323;-45
2022/05/26 06:39:19;;;;;;;;;;;17.40;1.00;;;;;;10452941;27;84980;-49
2022/05/26 06:44:19;;;;;;;;;;;17.60;1.00;;;;;;10453099;27;85182;-48
2022/05/26 06:49:20;;;;;;;;;;;17.50;1.00;;;;;;10450394;28;84529;-48
2022/05/26 06:54:21;;;;;;;;;;;17.70;1.00;;;;;;10450615;27;85063;-55
2022/05/26 06:59:21;;;;;;;;;;;18.00;1.00;;;;;;10451294;28;84857;-51
2022/05/26 07:04:22;;;;;;;;;;;18.20;1.00;;;;;;10466039;27;85898;-50
2022/05/26 07:09:23;;;;;;;;;;;18.00;1.00;;;;;;10450639;28;84986;-49
2022/05/26 07:14:24;;;;;;;;;;;17.90;1.00;;;;;;10449579;28;84906;-52
2022/05/26 07:19:25;;;;;;;;;;;17.90;1.00;;;;;;10451015;28;84285;-50
2022/05/26 07:24:26;;;;;;;;;;;18.10;1.00;;;;;;10449964;27;84522;-53
2022/05/26 07:29:27;;;;;;;;;;;18.10;1.00;;;;;;10451014;28;85391;-47
2022/05/26 07:34:27;;;;;;;;;;;18.30;1.00;;;;;;10447662;28;86218;-47
2022/05/26 07:44:48;;;;;;;;;;;18.40;1.00;;;;;;10452121;27;84892;-50
2022/05/26 07:49:49;;;;;;;;;;;18.70;1.00;;;;;;10442455;27;84711;-48
2022/05/26 07:54:50;;;;;;;;;;;19.00;99.90;;;;;;10439244;28;84598;-50
2022/05/26 07:59:51;;;;;;;;;;;19.00;99.90;;;;;;10440143;27;84277;-59
2022/05/26 08:04:52;;;;;;;;;;;19.10;99.90;;;;;;10442475;28;84319;-54
2022/05/26 08:09:52;;;;;;;;;;;19.20;1.00;;;;;;10444810;28;86274;-54
2022/05/26 08:14:53;;;;;;;;;;;19.50;1.00;;;;;;10444944;28;86150;-54
2022/05/26 08:19:53;;;;;;;;;;;19.90;1.00;;;;;;10444027;28;86471;-52
2022/05/26 08:24:55;;;;;;;;;;;20.20;1.00;;;;;;10467792;27;85093;-53
2022/05/26 08:29:56;;;;;;;;;;;20.40;99.90;;;;;;10466075;27;86169;-55
2022/05/26 08:34:58;;;;;;;;;;;20.50;99.90;;;;;;10451145;28;84084;-58
2022/05/26 08:39:58;;;;;;;;;;;20.40;99.90;;;;;;10447799;27;84095;-59
2022/05/26 08:45:05;;;;;;;;;;;20.50;99.90;;;;;;10451544;28;84947;-53
2022/05/26 08:50:14;;;;;;;;;;;20.80;1.00;;;;;;10447798;28;84645;-55
2022/05/26 08:55:17;;;;;;;;;;;20.50;1.00;;;;;;10446503;28;84280;-50
2022/05/26 09:00:20;;;;;;;;;;;20.50;1.00;;;;;;10448863;28;84414;-48
2022/05/26 09:05:21;;;;;;;;;;;21.20;1.00;;;;;;10447552;27;84388;-50
2022/05/26 09:15:30;;;;;;;;;;;21.40;1.00;;;;;;10476725;27;82991;-52
2022/05/26 09:20:33;;;;;;;;;;;21.40;1.00;;;;;;10460477;27;83115;-53
2022/05/26 09:25:39;;;;;;;;;;;21.50;99.90;;;;;;10479119;27;82928;-51
2022/05/26 09:30:40;;;;;;;;;;;21.10;1.00;;;;;;10482505;27;83095;-49
2022/05/26 09:35:40;;;;;;;;;;;21.40;99.90;;;;;;10485296;27;83880;-48
2022/05/26 09:40:45;;;;;;;;;;;22.90;99.90;;;;;;10483812;27;83761;-56
2022/05/26 09:45:51;;;;;;;;;;;24.20;64.70;;;;;;10482221;27;82799;-49
2022/05/26 09:50:54;;;;;;;;;;;24.70;1.00;;;;;;10482956;27;83838;-53
2022/05/26 09:55:55;;;;;;;;;;;23.30;99.90;;;;;;10469409;27;83171;-51
2022/05/26 10:00:58;;;;;;;;;;;22.50;1.00;;;;;;10441144;28;83251;-53
2022/05/26 10:06:15;;;;;;;;;;;23.00;99.90;;;;;;10454315;27;82975;-56
2022/05/26 10:11:36;;;;;;;;;;;23.00;1.00;;;;;;10476848;27;83920;-53
2022/05/26 10:16:43;;;;;;;;;;;23.40;1.00;;;;;;10477384;27;83000;-50
2022/05/26 10:21:50;;;;;;;;;;;23.90;99.90;;;;;;10454915;27;84391;-57
2022/05/26 10:27:01;;;;;;;;;;;23.10;1.00;;;;;;10433492;27;83024;-49
2022/05/26 10:32:18;;;;;;;;;;;22.20;1.00;;;;;;10433082;27;83863;-52
2022/05/26 10:37:23;;;;;;;;;;;23.50;1.00;;;;;;10447585;28;83147;-48
2022/05/26 10:42:38;;;;;;;;;;;23.70;1.00;;;;;;10448161;28;84066;-53
2022/05/26 10:47:43;;;;;;;;;;;22.80;1.00;;;;;;10447042;28;83388;-54
2022/05/26 10:52:52;;;;;;;;;;;21.50;99.90;;;;;;10445671;27;83291;-51
2022/05/26 10:57:55;;;;;;;;;;;20.70;1.00;;;;;;10437805;28;83246;-51
2022/05/26 11:02:59;;;;;;;;;;;20.60;99.90;;;;;;10451954;27;83178;-50
2022/05/26 11:08:02;;;;;;;;;;;20.30;1.00;;;;;;10436179;27;83904;-47
2022/05/26 11:13:02;;;;;;;;;;;20.30;1.00;;;;;;10447249;28;84099;-50
2022/05/26 11:18:14;;;;;;;;;;;20.70;1.00;;;;;;10438021;28;84262;-47
2022/05/26 11:23:17;;;;;;;;;;;20.80;1.00;;;;;;10431849;28;83852;-44
2022/05/26 11:28:20;;;;;;;;;;;20.50;1.00;;;;;;10432544;28;84044;-49
2022/05/26 11:38:49;;;;;;;;;;;19.80;1.00;;;;;;10444154;28;83582;-50
2022/05/26 11:44:06;;;;;;;;;;;19.60;1.00;;;;;;10439018;28;83839;-47
2022/05/26 11:49:10;;;;;;;;;;;19.50;1.00;;;;;;10445229;27;84249;-47
2022/05/26 11:54:30;;;;;;;;;;;19.80;1.00;;;;;;10423431;28;83991;-50
2022/05/26 11:59:34;;;;;;;;;;;21.40;1.00;;;;;;10442597;28;84158;-53
2022/05/26 12:04:35;;;;;;;;;;;21.70;1.00;;;;;;10446301;28;83330;-45
2022/05/26 12:09:41;;;;;;;;;;;21.20;1.00;;;;;;10446753;28;84079;-48
2022/05/26 12:14:58;;;;;;;;;;;21.00;1.00;;;;;;10445580;28;83727;-47
2022/05/26 12:20:05;;;;;;;;;;;21.40;1.00;;;;;;10444032;28;84239;-49
2022/05/26 12:25:20;;;;;;;;;;;22.00;1.00;;;;;;10440051;28;84911;-50
2022/05/26 12:30:30;;;;;;;;;;;24.00;1.00;;;;;;10444940;28;83900;-48
2022/05/26 12:35:49;;;;;;;;;;;25.70;99.90;;;;;;10445146;28;83947;-49
2022/05/26 12:40:55;;;;;;;;;;;24.60;1.00;;;;;;10447135;28;83766;-57
2022/05/26 12:46:14;;;;;;;;;;;23.40;99.90;;;;;;10447663;27;83172;-51
2022/05/26 12:51:15;;;;;;;;;;;24.20;99.90;;;;;;10446506;28;83181;-48
2022/05/26 12:56:33;;;;;;;;;;;24.90;1.00;;;;;;10445143;28;84091;-52
2022/05/26 13:01:34;;;;;;;;;;;23.90;99.90;;;;;;10448365;28;83280;-51
2022/05/26 13:06:36;;;;;;;;;;;22.90;99.90;;;;;;10448998;28;83171;-47
2022/05/26 13:11:45;;;;;;;;;;;22.60;1.00;;;;;;10446542;28;83838;-46
2022/05/26 13:16:45;;;;;;;;;;;24.00;37.40;;;;;;10448189;28;83895;-45
2022/05/26 13:21:51;;;;;;;;;;;25.50;1.00;;;;;;10447934;28;83900;-52
2022/05/26 13:26:56;;;;;;;;;;;26.20;99.90;;;;;;10447604;28;83070;-44
2022/05/26 13:37:18;;;;;;;;;;;24.70;1.00;;;;;;10446548;28;83767;-45
2022/05/26 13:42:18;;;;;;;;;;;24.90;99.90;;;;;;10446480;28;83815;-47
2022/05/26 13:47:19;;;;;;;;;;;24.20;99.90;;;;;;10446480;28;83935;-50
2022/05/26 13:52:21;;;;;;;;;;;23.20;1.00;;;;;;10446714;28;84084;-46
2022/05/26 13:57:42;;;;;;;;;;;23.20;1.00;;;;;;10447276;27;83716;-48
2022/05/26 14:02:56;;;;;;;;;;;23.40;1.00;;;;;;10453671;28;84059;-52
2022/05/26 14:07:57;;;;;;;;;;;23.50;99.90;;;;;;10452361;28;84684;-49
2022/05/26 14:13:00;;;;;;;;;;;22.60;1.00;;;;;;10453618;28;83992;-46
2022/05/26 14:18:00;;;;;;;;;;;21.90;97.60;;;;;;10453777;27;83770;-44
2022/05/26 14:23:01;;;;;;;;;;;21.80;1.00;;;;;;10453385;28;88443;-48
2022/05/26 14:28:04;;;;;;;;;;;22.00;99.90;;;;;;10451218;28;83903;-47
2022/05/26 14:33:09;;;;;;;;;;;22.10;1.00;;;;;;10451666;28;83877;-46
2022/05/26 14:38:09;;;;;;;;;;;22.10;1.00;;;;;;10451529;28;83854;-42
2022/05/26 14:43:10;;;;;;;;;;;22.10;1.00;;;;;;10450403;28;84040;-45
2022/05/26 14:48:11;;;;;;;;;;;21.90;1.00;;;;;;10451308;28;83771;-42
2022/05/26 14:53:12;;;;;;;;;;;21.90;1.00;;;;;;10450444;28;83756;-45
2022/05/26 14:58:14;;;;;;;;;;;21.60;1.00;;;;;;10441642;28;84783;-46
2022/05/26 15:03:16;;;;;;;;;;;21.70;1.00;;;;;;10413959;28;83665;-45
2022/05/26 15:08:20;;;;;;;;;;;21.70;99.90;;;;;;10422938;28;84529;-45
2022/05/26 15:13:21;;;;;;;;;;;21.80;1.00;;;;;;10443730;28;83980;-47
2022/05/26 15:18:22;;;;;;;;;;;21.50;1.00;;;;;;10429278;27;84413;-50
2022/05/26 15:23:23;;;;;;;;;;;21.40;1.00;;;;;;10444352;28;84127;-47
2022/05/26 15:28:24;;;;;;;;;;;21.40;99.90;;;;;;10442059;28;84973;-48
2022/05/26 15:33:24;;;;;;;;;;;21.30;99.90;;;;;;10441606;28;84713;-49
2022/05/26 15:38:28;;;;;;;;;;;21.40;1.00;;;;;;10443270;27;84197;-45
2022/05/26 15:43:28;;;;;;;;;;;21.70;1.00;;;;;;10443937;27;84229;-47
2022/05/26 15:48:29;;;;;;;;;;;21.90;1.00;;;;;;10453064;27;84244;-46
2022/05/26 15:53:30;;;;;;;;;;;21.70;1.00;;;;;;10441722;27;84694;-47
2022/05/26 15:58:31;;;;;;;;;;;21.70;1.00;;;;;;10456283;27;83990;-47
2022/05/26 16:03:31;;;;;;;;;;;21.50;1.00;;;;;;10442725;27;84251;-49
2022/05/26 16:08:32;;;;;;;;;;;21.70;1.00;;;;;;10425989;27;84595;-48
2022/05/26 16:13:33;;;;;;;;;;;21.60;99.90;;;;;;10447744;27;83870;-53
2022/05/26 16:18:34;;;;;;;;;;;21.50;1.00;;;;;;10448275;27;83200;-45
2022/05/26 16:23:37;;;;;;;;;;;21.10;99.90;;;;;;10444205;28;84030;-45
2022/05/26 16:28:38;;;;;;;;;;;21.00;1.00;;;;;;10444572;27;84224;-44
2022/05/26 16:33:38;;;;;;;;;;;21.10;1.00;;;;;;10434874;27;84105;-49
2022/05/26 16:38:40;;;;;;;;;;;21.20;1.00;;;;;;10437877;27;84475;-49
2022/05/26 16:43:41;;;;;;;;;;;21.10;1.00;;;;;;10437675;27;84288;-49
2022/05/26 16:48:42;;;;;;;;;;;21.10;1.00;;;;;;10444738;28;84588;-48
2022/05/26 16:53:44;;;;;;;;;;;20.90;99.90;;;;;;10432015;27;84248;-51
2022/05/26 16:58:44;;;;;;;;;;;20.80;1.00;;;;;;10434166;27;83635;-50
2022/05/26 17:03:47;;;;;;;;;;;20.60;1.00;;;;;;10438728;28;83675;-47
2022/05/26 17:08:47;;;;;;;;;;;20.60;1.00;;;;;;10441141;28;84199;-47
2022/05/26 17:24:27;;;;;;;;;;;20.50;99.90;;;;;;10438619;27;83797;-51
2022/05/26 17:29:28;;;;;;;;;;;20.40;1.00;;;;;;10433682;28;83107;-48
2022/05/26 17:34:28;;;;;;;;;;;20.20;1.00;;;;;;10449039;28;83913;-54
2022/05/26 17:39:31;;;;;;;;;;;20.10;1.00;;;;;;10452036;28;84751;-47
2022/05/26 17:44:32;;;;;;;;;;;20.10;1.00;;;;;;10445403;27;86432;-47
2022/05/26 17:49:33;;;;;;;;;;;20.10;1.00;;;;;;10435877;27;83972;-55
2022/05/26 17:54:38;;;;;;;;;;;20.10;1.00;;;;;;10438199;28;84079;-56
2022/05/26 18:04:58;;;;;;;;;;;20.00;97.40;;;;;;10453270;28;83800;-54
2022/05/26 18:09:58;;;;;;;;;;;19.90;99.90;;;;;;10425637;28;84198;-53
2022/05/26 18:14:59;;;;;;;;;;;19.90;99.90;;;;;;10451421;27;84078;-56
2022/05/26 18:20:01;;;;;;;;;;;19.80;1.00;;;;;;10426425;28;84084;-56
2022/05/26 18:25:01;;;;;;;;;;;19.70;1.00;;;;;;10448100;28;83450;-54
2022/05/26 18:30:02;;;;;;;;;;;19.70;1.00;;;;;;10435945;28;84073;-59
2022/05/26 18:35:08;;;;;;;;;;;19.70;1.00;;;;;;10446060;28;84748;-48
2022/05/26 18:40:09;;;;;;;;;;;19.60;1.00;;;;;;10448645;28;84559;-47
2022/05/26 18:45:10;;;;;;;;;;;19.50;1.00;;;;;;10449790;27;84133;-50
2022/05/26 18:50:11;;;;;;;;;;;19.50;99.90;;;;;;10446453;28;83911;-52
2022/05/26 18:55:16;;;;;;;;;;;19.50;99.90;;;;;;10451130;28;84010;-48
2022/05/26 19:00:17;;;;;;;;;;;19.50;99.90;;;;;;10446555;28;84884;-52
2022/05/26 19:05:18;;;;;;;;;;;19.40;99.90;;;;;;10451941;28;84072;-50
2022/05/26 19:10:18;;;;;;;;;;;19.50;99.90;;;;;;10444838;28;84133;-47
2022/05/26 19:15:19;;;;;;;;;;;19.40;99.90;;;;;;10437455;28;84036;-51
2022/05/26 19:20:20;;;;;;;;;;;19.40;99.90;;;;;;10445489;28;83407;-47
2022/05/26 19:25:20;;;;;;;;;;;19.50;1.00;;;;;;10439876;28;85025;-49
2022/05/26 19:30:21;;;;;;;;;;;19.50;1.00;;;;;;10441584;28;85114;-47
2022/05/26 19:35:23;;;;;;;;;;;19.20;1.00;;;;;;10447716;28;84454;-51
2022/05/26 19:40:23;;;;;;;;;;;19.20;1.00;;;;;;10447471;28;84156;-60
2022/05/26 19:45:24;;;;;;;;;;;19.10;99.90;;;;;;10447920;28;83515;-55
2022/05/26 19:50:25;;;;;;;;;;;19.00;99.90;;;;;;10448255;27;83502;-54
2022/05/26 19:55:26;;;;;;;;;;;18.90;99.90;;;;;;10444783;27;83477;-44
2022/05/26 20:00:27;;;;;;;;;;;18.60;1.00;;;;;;10446400;28;84435;-45
2022/05/26 20:05:32;;;;;;;;;;;18.50;1.00;;;;;;10447574;28;83813;-49
2022/05/26 20:10:33;;;;;;;;;;;18.20;1.00;;;;;;10445503;28;83988;-50
2022/05/26 20:15:33;;;;;;;;;;;17.90;1.00;;;;;;10443773;28;86170;-48
2022/05/26 20:20:34;;;;;;;;;;;17.90;1.00;;;;;;10429828;27;84834;-47
2022/05/26 20:25:37;;;;;;;;;;;17.80;1.00;;;;;;10430497;27;84449;-46
2022/05/26 20:30:37;;;;;;;;;;;17.70;1.00;;;;;;10438325;28;84101;-46
2022/05/26 20:35:39;;;;;;;;;;;17.80;1.00;;;;;;10442546;28;84172;-47
2022/05/26 20:40:40;;;;;;;;;;;17.80;1.00;;;;;;10421785;22;84423;-51
2022/05/26 20:45:44;;;;;;;;;;;17.90;1.00;;;;;;10367216;28;83309;-50
2022/05/26 20:50:45;;;;;;;;;;;17.90;1.00;;;;;;10365983;28;83791;-51
2022/05/26 20:55:49;;;;;;;;;;;17.90;1.00;;;;;;10369886;28;84049;-49
2022/05/26 21:00:50;;;;;;;;;;;17.90;1.00;;;;;;10371401;28;84102;-48
2022/05/26 21:05:51;;;;;;;;;;;17.80;1.00;;;;;;10369192;28;83876;-51
2022/05/26 21:10:52;;;;;;;;;;;17.70;1.00;;;;;;10369157;28;83363;-48
2022/05/26 21:15:52;;;;;;;;;;;17.60;1.00;;;;;;10367163;28;84132;-50
2022/05/26 21:20:53;;;;;;;;;;;17.60;1.00;;;;;;10350586;28;84304;-51
2022/05/26 21:25:54;;;;;;;;;;;17.50;1.00;;;;;;10350400;28;86078;-49
2022/05/26 21:30:56;;;;;;;;;;;17.50;1.00;;;;;;10349592;28;86546;-49
2022/05/26 21:35:58;;;;;;;;;;;17.50;1.00;;;;;;10362800;28;84245;-53
2022/05/26 21:40:59;;;;;;;;;;;17.50;1.00;;;;;;10359495;28;84005;-51
2022/05/26 21:46:00;;;;;;;;;;;17.50;1.00;;;;;;10340147;28;84212;-47
2022/05/26 21:51:00;;;;;;;;;;;17.30;1.00;;;;;;10347385;28;84148;-50
2022/05/26 21:56:01;;;;;;;;;;;17.30;1.00;;;;;;10354737;28;84188;-51
2022/05/26 22:01:03;;;;;;;;;;;17.30;1.00;;;;;;10348520;28;83652;-49
2022/05/26 22:11:23;;;;;;;;;;;17.30;1.00;;;;;;10346133;28;83500;-52
2022/05/26 22:16:24;;;;;;;;;;;17.20;1.00;;;;;;10345836;28;84175;-48
2022/05/26 22:21:24;;;;;;;;;;;17.10;1.00;;;;;;10351396;28;84585;-51
2022/05/26 22:26:25;;;;;;;;;;;16.90;1.00;;;;;;10353557;28;84264;-49
2022/05/26 22:31:26;;;;;;;;;;;16.80;1.00;;;;;;10335086;28;85424;-49
2022/05/26 22:36:27;;;;;;;;;;;16.60;27.40;;;;;;10345811;28;84866;-51
2022/05/26 22:41:28;;;;;;;;;;;16.50;66.10;;;;;;10374247;28;84377;-47
2022/05/26 22:46:31;;;;;;;;;;;16.40;99.90;;;;;;10374646;28;84077;-53
2022/05/26 22:51:32;;;;;;;;;;;16.40;99.90;;;;;;10374339;28;84164;-49
2022/05/26 22:56:37;;;;;;;;;;;16.30;99.90;;;;;;10327108;28;85888;-53
2022/05/26 23:01:38;;;;;;;;;;;16.20;98.70;;;;;;10332328;28;84096;-52
2022/05/26 23:06:38;;;;;;;;;;;16.20;98.60;;;;;;10350978;28;83911;-48
2022/05/26 23:11:39;;;;;;;;;;;16.20;97.20;;;;;;10357556;28;83703;-49
2022/05/26 23:16:40;;;;;;;;;;;16.30;26.00;;;;;;10331325;28;83802;-50
2022/05/26 23:21:40;;;;;;;;;;;16.20;1.00;;;;;;10330180;28;84140;-49
2022/05/26 23:26:41;;;;;;;;;;;16.20;17.10;;;;;;10358935;28;83962;-48
2022/05/26 23:31:42;;;;;;;;;;;16.00;99.90;;;;;;10369323;28;84146;-47
2022/05/26 23:36:42;;;;;;;;;;;15.80;99.90;;;;;;10368509;28;83901;-49
2022/05/26 23:47:18;;;;;;;;;;;15.60;99.90;;;;;;10295782;28;83956;-49
2022/05/26 23:52:19;;;;;;;;;;;15.50;99.90;;;;;;10349598;28;83774;-51
